createdAt,value
2023-02-27T00:00:22.271Z,100461.78
2023-02-27T00:03:25.057Z,100455.72
2023-02-27T00:06:28.049Z,100464.28
2023-02-27T00:09:30.689Z,100447.19
2023-02-27T00:12:37.903Z,100479.16
2023-02-27T00:15:41.045Z,100485.31
2023-02-27T00:18:43.470Z,100478.50
2023-02-27T00:21:46.300Z,100476.50
2023-02-27T00:24:48.605Z,100480.81
2023-02-27T00:27:51.452Z,100496.47
2023-02-27T00:30:55.665Z,100480.63
2023-02-27T00:33:58.497Z,100496.50
2023-02-27T00:37:00.836Z,100501.50
2023-02-27T00:40:05.437Z,100503.66
2023-02-27T00:43:08.080Z,100508.37
2023-02-27T00:46:10.928Z,100502.75
2023-02-27T00:49:13.430Z,100484.91
2023-02-27T00:52:16.032Z,100512.06
2023-02-27T00:55:18.465Z,100512.81
2023-02-27T00:58:21.086Z,100519.28
2023-02-27T01:01:23.389Z,100528.34
2023-02-27T01:04:26.368Z,100527.03
2023-02-27T01:07:29.106Z,100512.50
2023-02-27T01:10:31.963Z,100537.19
2023-02-27T01:13:34.322Z,100521.47
2023-02-27T01:16:37.020Z,100543.03
2023-02-27T01:19:39.552Z,100514.19
2023-02-27T01:22:42.377Z,100538.59
2023-02-27T01:25:49.229Z,100540.38
2023-02-27T01:28:51.965Z,100547.78
2023-02-27T01:31:54.490Z,100540.66
2023-02-27T01:34:57.271Z,100550.78
2023-02-27T01:38:02.004Z,100547.44
2023-02-27T01:41:07.253Z,100537.31
2023-02-27T01:44:12.203Z,100542.78
2023-02-27T01:47:14.842Z,100518.25
2023-02-27T01:50:18.439Z,100536.97
2023-02-27T01:53:25.989Z,100541.13
2023-02-27T01:56:30.910Z,100526.00
2023-02-27T01:59:35.854Z,100537.75
2023-02-27T02:02:42.342Z,100539.47
2023-02-27T02:05:46.888Z,100541.75
2023-02-27T02:08:51.720Z,100532.78
2023-02-27T02:11:57.060Z,100557.81
2023-02-27T02:14:59.796Z,100532.53
2023-02-27T02:18:17.718Z,100542.47
2023-02-27T02:22:08.430Z,100564.25
2023-02-27T02:25:18.040Z,100571.41
2023-02-27T02:28:54.553Z,100577.25
2023-02-27T02:32:21.790Z,100583.00
2023-02-27T02:35:42.712Z,100594.06
2023-02-27T02:39:06.371Z,100598.38
2023-02-27T02:42:25.842Z,100591.91
2023-02-27T02:45:41.666Z,100594.19
2023-02-27T02:48:48.757Z,100579.16
2023-02-27T02:52:20.640Z,100569.37
2023-02-27T02:55:30.819Z,100597.91
2023-02-27T02:58:42.577Z,100598.72
2023-02-27T03:01:51.975Z,100596.19
2023-02-27T03:05:00.954Z,100587.88
2023-02-27T03:08:10.992Z,100598.38
2023-02-27T03:11:13.436Z,100581.19
2023-02-27T03:14:37.821Z,100586.44
2023-02-27T03:17:50.467Z,100610.88
2023-02-27T03:20:58.282Z,100614.81
2023-02-27T03:24:04.046Z,100617.22
2023-02-27T03:27:09.769Z,100615.41
2023-02-27T03:30:29.781Z,100597.66
2023-02-27T03:33:38.906Z,100628.06
2023-02-27T03:36:50.054Z,100605.19
2023-02-27T03:40:04.490Z,100632.12
2023-02-27T03:43:19.158Z,100640.22
2023-02-27T03:46:24.825Z,100620.56
2023-02-27T03:49:27.333Z,100635.94
2023-02-27T03:52:30.241Z,100637.25
2023-02-27T03:55:40.047Z,100653.09
2023-02-27T03:58:42.767Z,100626.87
2023-02-27T04:01:45.508Z,100645.94
2023-02-27T04:04:48.289Z,100629.12
2023-02-27T04:08:18.926Z,100647.97
2023-02-27T04:11:48.652Z,100639.25
2023-02-27T04:15:09.597Z,100644.37
2023-02-27T04:18:32.450Z,100645.72
2023-02-27T04:22:05.090Z,100652.75
2023-02-27T04:25:13.556Z,100637.00
2023-02-27T04:28:31.190Z,100659.91
2023-02-27T04:32:00.278Z,100634.75
2023-02-27T04:35:18.128Z,100660.75
2023-02-27T04:38:56.253Z,100668.03
2023-02-27T04:42:03.370Z,100672.69
2023-02-27T04:45:10.650Z,100661.34
2023-02-27T04:48:26.132Z,100680.53
2023-02-27T04:51:55.736Z,100654.75
2023-02-27T04:55:25.294Z,100655.62
2023-02-27T04:58:30.954Z,100682.91
2023-02-27T05:01:40.049Z,100667.06
2023-02-27T05:04:45.020Z,100689.84
2023-02-27T05:07:56.801Z,100658.94
2023-02-27T05:11:13.929Z,100682.91
2023-02-27T05:14:42.538Z,100692.09
2023-02-27T05:17:56.817Z,100697.13
2023-02-27T05:21:27.929Z,100684.34
2023-02-27T05:24:49.334Z,100696.16
2023-02-27T05:27:59.773Z,100718.69
2023-02-27T05:31:37.644Z,100712.38
2023-02-27T05:34:49.264Z,100712.00
2023-02-27T05:38:04.870Z,100731.91
2023-02-27T05:41:13.716Z,100728.09
2023-02-27T05:44:23.397Z,100741.22
2023-02-27T05:47:30.643Z,100719.50
2023-02-27T05:50:37.403Z,100751.12
2023-02-27T05:53:46.261Z,100745.75
2023-02-27T05:56:52.560Z,100731.66
2023-02-27T06:00:06.227Z,100754.34
2023-02-27T06:03:14.359Z,100743.09
2023-02-27T06:06:19.370Z,100768.28
2023-02-27T06:09:22.182Z,100769.25
2023-02-27T06:12:25.373Z,100753.75
2023-02-27T06:15:28.415Z,100758.97
2023-02-27T06:18:31.253Z,100783.69
2023-02-27T06:21:33.674Z,100770.66
2023-02-27T06:24:36.874Z,100780.69
2023-02-27T06:27:39.410Z,100804.94
2023-02-27T06:30:42.142Z,100803.72
2023-02-27T06:33:44.508Z,100805.38
2023-02-27T06:36:47.676Z,100825.81
2023-02-27T06:39:50.781Z,100828.09
2023-02-27T06:42:53.487Z,100837.16
2023-02-27T06:45:56.319Z,100847.19
2023-02-27T06:48:59.310Z,100848.03
2023-02-27T06:52:01.804Z,100849.72
2023-02-27T06:55:06.316Z,100858.06
2023-02-27T06:58:08.756Z,100852.47
2023-02-27T07:01:12.239Z,100867.50
2023-02-27T07:04:15.691Z,100868.63
2023-02-27T07:07:33.798Z,100875.31
2023-02-27T07:10:40.298Z,100874.50
2023-02-27T07:13:42.979Z,100869.09
2023-02-27T07:16:47.126Z,100879.38
2023-02-27T07:19:49.858Z,100876.16
2023-02-27T07:22:52.201Z,100870.28
2023-02-27T07:25:54.867Z,100884.75
2023-02-27T07:28:57.266Z,100883.19
2023-02-27T07:32:01.517Z,100884.37
2023-02-27T07:35:04.213Z,100877.94
2023-02-27T07:38:06.929Z,100873.12
2023-02-27T07:41:15.885Z,100869.94
2023-02-27T07:44:26.652Z,100893.59
2023-02-27T07:47:30.381Z,100910.22
2023-02-27T07:50:33.177Z,100907.94
2023-02-27T07:53:35.617Z,100903.88
2023-02-27T07:56:38.200Z,100890.87
2023-02-27T07:59:40.554Z,100905.91
2023-02-27T08:02:43.302Z,100900.75
2023-02-27T08:05:46.123Z,100895.03
2023-02-27T08:08:48.954Z,100912.72
2023-02-27T08:11:51.639Z,100909.31
2023-02-27T08:14:54.012Z,100908.41
2023-02-27T08:17:56.647Z,100919.63
2023-02-27T08:20:59.101Z,100908.44
2023-02-27T08:24:02.021Z,100907.34
2023-02-27T08:27:04.542Z,100905.66
2023-02-27T08:30:09.624Z,100912.38
2023-02-27T08:33:12.116Z,100918.09
2023-02-27T08:36:15.052Z,100942.59
2023-02-27T08:39:18.653Z,100933.00
2023-02-27T08:42:21.257Z,100958.97
2023-02-27T08:45:23.761Z,100945.00
2023-02-27T08:48:26.509Z,100961.12
2023-02-27T08:51:29.449Z,100966.84
2023-02-27T08:54:32.380Z,100947.62
2023-02-27T08:57:34.821Z,100969.94
2023-02-27T09:00:37.455Z,100988.47
2023-02-27T09:03:39.863Z,100982.25
2023-02-27T09:06:42.496Z,100987.41
2023-02-27T09:09:45.185Z,100978.53
2023-02-27T09:12:49.288Z,100973.41
2023-02-27T09:15:51.716Z,100979.50
2023-02-27T09:18:54.392Z,100975.22
2023-02-27T09:21:56.958Z,100977.03
2023-02-27T09:25:00.278Z,100967.25
2023-02-27T09:28:03.150Z,100963.03
2023-02-27T09:31:09.638Z,100977.88
2023-02-27T09:34:12.020Z,100990.69
2023-02-27T09:37:15.588Z,100986.00
2023-02-27T09:40:41.769Z,100985.09
2023-02-27T09:43:47.767Z,100986.94
2023-02-27T09:46:50.615Z,100973.56
2023-02-27T09:50:27.536Z,100979.41
2023-02-27T09:53:39.220Z,100983.28
2023-02-27T09:57:03.826Z,100990.25
2023-02-27T10:00:32.800Z,100994.81
2023-02-27T10:03:57.096Z,100998.22
2023-02-27T10:07:19.472Z,101003.81
2023-02-27T10:10:30.319Z,100998.50
2023-02-27T10:14:06.565Z,100991.56
2023-02-27T10:17:22.840Z,100996.00
2023-02-27T10:20:37.332Z,101005.41
2023-02-27T10:24:01.794Z,101003.19
2023-02-27T10:27:07.847Z,101006.41
2023-02-27T10:30:28.311Z,100985.38
2023-02-27T10:33:42.091Z,101002.03
2023-02-27T10:36:47.256Z,100994.00
2023-02-27T10:39:59.429Z,101005.69
2023-02-27T10:43:06.107Z,101003.94
2023-02-27T10:46:25.363Z,100998.72
2023-02-27T10:49:32.851Z,100989.06
2023-02-27T10:52:48.992Z,100970.56
2023-02-27T10:56:04.790Z,100995.22
2023-02-27T10:59:17.273Z,100997.16
2023-02-27T11:02:25.169Z,101000.31
2023-02-27T11:05:33.333Z,100982.69
2023-02-27T11:08:36.375Z,100988.66
2023-02-27T11:11:39.216Z,100990.16
2023-02-27T11:14:53.549Z,100995.09
2023-02-27T11:18:19.853Z,100981.22
2023-02-27T11:21:30.681Z,101003.16
2023-02-27T11:24:34.401Z,101007.41
2023-02-27T11:27:37.096Z,100990.47
2023-02-27T11:30:39.550Z,101007.44
2023-02-27T11:33:51.952Z,101008.62
2023-02-27T11:37:07.421Z,101014.41
2023-02-27T11:40:16.567Z,101010.53
2023-02-27T11:43:47.170Z,101003.19
2023-02-27T11:46:50.168Z,101009.72
2023-02-27T11:50:18.775Z,101013.88
2023-02-27T11:53:33.681Z,101009.97
2023-02-27T11:57:20.353Z,101012.06
2023-02-27T12:00:22.897Z,101006.25
2023-02-27T12:03:33.733Z,101001.59
2023-02-27T12:06:50.161Z,101009.84
2023-02-27T12:10:14.177Z,101007.00
2023-02-27T12:13:30.066Z,100983.78
2023-02-27T12:16:42.489Z,101008.16
2023-02-27T12:20:14.939Z,101009.25
2023-02-27T12:23:23.938Z,101009.63
2023-02-27T12:26:32.589Z,101010.91
2023-02-27T12:29:41.573Z,101014.78
2023-02-27T12:32:52.938Z,100989.97
2023-02-27T12:36:05.079Z,100997.25
2023-02-27T12:39:18.431Z,101019.59
2023-02-27T12:42:54.328Z,101010.63
2023-02-27T12:46:18.515Z,101009.00
2023-02-27T12:49:50.027Z,101021.91
2023-02-27T12:53:22.607Z,101024.88
2023-02-27T12:56:37.329Z,101036.16
2023-02-27T12:59:51.425Z,101012.94
2023-02-27T13:03:00.930Z,101035.38
2023-02-27T13:06:32.536Z,101026.34
2023-02-27T13:09:56.012Z,101031.78
2023-02-27T13:13:31.677Z,101013.56
2023-02-27T13:16:40.819Z,101039.78
2023-02-27T13:19:52.979Z,101026.59
2023-02-27T13:23:07.952Z,101021.97
2023-02-27T13:26:37.072Z,101033.09
2023-02-27T13:29:47.689Z,101020.91
2023-02-27T13:33:15.378Z,101039.53
2023-02-27T13:36:24.557Z,101041.81
2023-02-27T13:39:48.939Z,101046.66
2023-02-27T13:42:53.299Z,101043.56
2023-02-27T13:45:58.973Z,101035.91
2023-02-27T13:49:04.419Z,101045.03
2023-02-27T13:52:07.138Z,101050.28
2023-02-27T13:55:28.064Z,101050.63
2023-02-27T13:58:30.704Z,101047.97
2023-02-27T14:01:35.060Z,101033.25
2023-02-27T14:04:58.157Z,101045.78
2023-02-27T14:08:05.572Z,101036.16
2023-02-27T14:11:25.065Z,101043.78
2023-02-27T14:14:44.439Z,101046.25
2023-02-27T14:17:50.964Z,101041.50
2023-02-27T14:20:54.974Z,101020.50
2023-02-27T14:23:57.779Z,101036.75
2023-02-27T14:27:01.049Z,101015.94
2023-02-27T14:30:10.285Z,101020.91
2023-02-27T14:33:39.191Z,101020.50
2023-02-27T14:36:49.995Z,101038.69
2023-02-27T14:39:55.093Z,101038.81
2023-02-27T14:43:00.696Z,101047.44
2023-02-27T14:46:28.567Z,101023.72
2023-02-27T14:49:34.623Z,101041.28
2023-02-27T14:52:43.856Z,101049.56
2023-02-27T14:55:57.412Z,101035.53
2023-02-27T14:59:07.486Z,101051.31
2023-02-27T15:02:30.744Z,101034.44
2023-02-27T15:05:35.058Z,101038.88
2023-02-27T15:08:40.049Z,101058.41
2023-02-27T15:11:46.508Z,101060.37
2023-02-27T15:15:03.111Z,101065.88
2023-02-27T15:18:13.454Z,101082.28
2023-02-27T15:21:17.708Z,101076.50
2023-02-27T15:24:24.922Z,101084.97
2023-02-27T15:27:28.498Z,101089.31
2023-02-27T15:30:31.740Z,101085.47
2023-02-27T15:33:34.484Z,101085.88
2023-02-27T15:36:39.134Z,101076.84
2023-02-27T15:39:41.928Z,101105.81
2023-02-27T15:42:44.924Z,101088.94
2023-02-27T15:45:48.438Z,101092.53
2023-02-27T15:48:53.887Z,101100.28
2023-02-27T15:52:02.609Z,101118.59
2023-02-27T15:55:11.328Z,101124.03
2023-02-27T15:58:35.677Z,101113.78
2023-02-27T16:01:39.136Z,101140.62
2023-02-27T16:04:45.969Z,101139.69
2023-02-27T16:07:49.964Z,101135.16
2023-02-27T16:10:53.242Z,101122.53
2023-02-27T16:13:56.417Z,101127.94
2023-02-27T16:16:59.088Z,101154.16
2023-02-27T16:20:22.026Z,101145.28
2023-02-27T16:23:27.797Z,101157.16
2023-02-27T16:26:32.212Z,101165.41
2023-02-27T16:29:40.220Z,101166.72
2023-02-27T16:32:46.645Z,101168.66
2023-02-27T16:35:50.988Z,101185.44
2023-02-27T16:38:53.920Z,101189.50
2023-02-27T16:41:58.866Z,101178.63
2023-02-27T16:45:01.279Z,101197.56
2023-02-27T16:48:05.302Z,101203.19
2023-02-27T16:51:15.065Z,101190.50
2023-02-27T16:54:18.292Z,101219.13
2023-02-27T16:57:24.833Z,101199.84
2023-02-27T17:00:27.564Z,101220.09
2023-02-27T17:03:30.060Z,101223.69
2023-02-27T17:06:33.785Z,101230.63
2023-02-27T17:09:36.194Z,101234.09
2023-02-27T17:12:39.205Z,101242.00
2023-02-27T17:15:41.550Z,101246.44
2023-02-27T17:18:44.194Z,101243.06
2023-02-27T17:21:46.648Z,101248.59
2023-02-27T17:24:49.452Z,101253.50
2023-02-27T17:27:52.050Z,101252.41
2023-02-27T17:30:55.041Z,101256.72
2023-02-27T17:33:57.568Z,101252.88
2023-02-27T17:37:00.268Z,101259.94
2023-02-27T17:40:04.706Z,101264.88
2023-02-27T17:43:07.408Z,101243.91
2023-02-27T17:46:11.259Z,101262.47
2023-02-27T17:49:13.864Z,101270.50
2023-02-27T17:52:16.372Z,101252.38
2023-02-27T17:55:19.184Z,101250.47
2023-02-27T17:58:21.548Z,101265.56
2023-02-27T18:01:26.101Z,101254.75
2023-02-27T18:04:29.043Z,101282.56
2023-02-27T18:07:31.717Z,101264.34
2023-02-27T18:10:34.474Z,101285.19
2023-02-27T18:13:37.251Z,101291.75
2023-02-27T18:16:40.034Z,101273.19
2023-02-27T18:19:43.257Z,101277.94
2023-02-27T18:22:45.987Z,101296.03
2023-02-27T18:25:54.674Z,101295.41
2023-02-27T18:29:03.408Z,101318.88
2023-02-27T18:32:08.962Z,101325.22
2023-02-27T18:35:12.553Z,101327.41
2023-02-27T18:38:15.223Z,101322.63
2023-02-27T18:41:17.968Z,101323.75
2023-02-27T18:44:20.669Z,101317.16
2023-02-27T18:47:23.422Z,101317.16
2023-02-27T18:50:25.912Z,101331.03
2023-02-27T18:53:28.672Z,101335.47
2023-02-27T18:56:32.952Z,101349.63
2023-02-27T18:59:35.815Z,101342.91
2023-02-27T19:02:41.625Z,101342.59
2023-02-27T19:05:44.609Z,101353.66
2023-02-27T19:08:47.177Z,101354.00
2023-02-27T19:11:49.961Z,101354.81
2023-02-27T19:14:52.484Z,101362.59
2023-02-27T19:17:55.181Z,101386.41
2023-02-27T19:21:03.445Z,101376.97
2023-02-27T19:24:07.056Z,101393.84
2023-02-27T19:27:09.436Z,101397.78
2023-02-27T19:30:13.081Z,101405.91
2023-02-27T19:33:15.389Z,101415.81
2023-02-27T19:36:20.695Z,101421.25
2023-02-27T19:39:23.074Z,101408.66
2023-02-27T19:42:25.972Z,101409.50
2023-02-27T19:45:29.017Z,101421.66
2023-02-27T19:48:32.113Z,101404.03
2023-02-27T19:51:34.497Z,101403.84
2023-02-27T19:54:37.140Z,101413.50
2023-02-27T19:57:39.596Z,101397.38
2023-02-27T20:00:42.244Z,101427.47
2023-02-27T20:03:45.187Z,101424.97
2023-02-27T20:06:50.239Z,101424.41
2023-02-27T20:09:52.899Z,101445.06
2023-02-27T20:12:55.205Z,101464.06
2023-02-27T20:15:59.985Z,101462.41
2023-02-27T20:19:07.192Z,101470.84
2023-02-27T20:22:10.157Z,101476.28
2023-02-27T20:25:13.714Z,101476.69
2023-02-27T20:28:16.542Z,101451.44
2023-02-27T20:31:22.042Z,101478.41
2023-02-27T20:34:26.526Z,101469.75
2023-02-27T20:37:31.950Z,101486.50
2023-02-27T20:40:34.995Z,101472.19
2023-02-27T20:43:38.803Z,101482.31
2023-02-27T20:46:43.447Z,101492.84
2023-02-27T20:49:45.852Z,101475.38
2023-02-27T20:52:53.592Z,101502.75
2023-02-27T20:55:56.092Z,101492.66
2023-02-27T20:59:01.232Z,101495.41
2023-02-27T21:02:06.739Z,101498.78
2023-02-27T21:05:09.570Z,101498.78
2023-02-27T21:08:11.930Z,101499.41
2023-02-27T21:11:27.352Z,101490.19
2023-02-27T21:14:29.954Z,101481.91
2023-02-27T21:17:33.246Z,101479.81
2023-02-27T21:20:35.577Z,101509.97
2023-02-27T21:24:05.144Z,101516.69
2023-02-27T21:27:07.596Z,101513.94
2023-02-27T21:30:11.067Z,101509.34
2023-02-27T21:33:13.378Z,101525.34
2023-02-27T21:36:16.848Z,101520.31
2023-02-27T21:39:28.173Z,101515.66
2023-02-27T21:42:31.873Z,101512.53
2023-02-27T21:45:36.766Z,101508.31
2023-02-27T21:48:39.820Z,101527.88
2023-02-27T21:51:42.679Z,101525.34
2023-02-27T21:54:45.524Z,101524.31
2023-02-27T21:57:47.818Z,101514.00
2023-02-27T22:00:50.832Z,101537.16
2023-02-27T22:03:54.200Z,101524.13
2023-02-27T22:06:56.954Z,101504.94
2023-02-27T22:09:59.665Z,101507.66
2023-02-27T22:13:02.498Z,101510.41
2023-02-27T22:16:12.813Z,101516.09
2023-02-27T22:19:19.948Z,101501.34
2023-02-27T22:22:22.906Z,101508.06
2023-02-27T22:25:25.255Z,101506.41
2023-02-27T22:28:28.357Z,101505.16
2023-02-27T22:31:34.395Z,101504.50
2023-02-27T22:34:37.158Z,101501.31
2023-02-27T22:37:39.525Z,101473.50
2023-02-27T22:40:42.157Z,101500.66
2023-02-27T22:43:47.580Z,101499.81
2023-02-27T22:46:50.649Z,101501.50
2023-02-27T22:49:53.036Z,101513.94
2023-02-27T22:52:55.706Z,101500.50
2023-02-27T22:55:58.142Z,101521.16
2023-02-27T22:59:00.851Z,101517.78
2023-02-27T23:02:03.247Z,101503.91
2023-02-27T23:05:06.210Z,101527.06
2023-02-27T23:08:08.529Z,101515.69
2023-02-27T23:11:13.362Z,101529.19
2023-02-27T23:14:16.436Z,101515.06
2023-02-27T23:17:19.134Z,101528.13
2023-02-27T23:20:21.502Z,101524.13
2023-02-27T23:23:24.371Z,101526.25
2023-02-27T23:26:29.564Z,101522.66
2023-02-27T23:29:32.342Z,101522.84
2023-02-27T23:32:43.442Z,101534.22
2023-02-27T23:35:46.507Z,101524.53
2023-02-27T23:38:49.239Z,101522.84
2023-02-27T23:41:51.827Z,101505.78
2023-02-27T23:45:32.921Z,101531.87
2023-02-27T23:48:36.085Z,101533.38
2023-02-27T23:51:38.541Z,101519.03
2023-02-27T23:54:41.138Z,101535.69
2023-02-27T23:57:43.613Z,101523.25
